createdAt,value
2023-03-20T00:02:22.589Z,2.90
2023-03-20T00:04:50.066Z,2.90
2023-03-20T00:07:17.610Z,2.83
2023-03-20T00:09:45.092Z,2.53
2023-03-20T00:12:22.308Z,2.53
2023-03-20T00:14:49.869Z,2.83
2023-03-20T00:17:20.777Z,2.97
2023-03-20T00:19:48.582Z,2.83
2023-03-20T00:24:44.069Z,2.58
2023-03-20T00:27:17.858Z,2.78
2023-03-20T00:29:45.985Z,2.70
2023-03-20T00:32:14.537Z,2.63
2023-03-20T00:34:42.274Z,2.92
2023-03-20T00:37:12.027Z,2.58
2023-03-20T00:39:41.319Z,2.97
2023-03-20T00:42:22.426Z,2.30
2023-03-20T00:44:57.063Z,3.13
2023-03-20T00:47:25.755Z,2.63
2023-03-20T00:49:56.053Z,3.00
2023-03-20T00:52:24.838Z,2.88
2023-03-20T00:54:52.442Z,2.75
2023-03-20T00:57:28.971Z,2.78
2023-03-20T01:00:05.279Z,2.67
2023-03-20T01:02:34.055Z,3.30
2023-03-20T01:05:06.014Z,3.13
2023-03-20T01:07:34.065Z,2.67
2023-03-20T01:10:04.726Z,4.43
2023-03-20T01:12:33.099Z,2.50
2023-03-20T01:15:01.169Z,2.70
2023-03-20T01:17:30.157Z,2.75
2023-03-20T01:19:57.576Z,2.30
2023-03-20T01:22:25.122Z,2.90
2023-03-20T01:27:23.792Z,2.55
2023-03-20T01:29:51.485Z,2.67
2023-03-20T01:32:19.979Z,2.72
2023-03-20T01:34:55.262Z,3.15
2023-03-20T01:37:28.260Z,2.58
2023-03-20T01:40:00.985Z,2.63
2023-03-20T01:42:29.326Z,2.55
2023-03-20T01:44:56.972Z,2.00
2023-03-20T01:47:26.297Z,2.20
2023-03-20T01:50:33.674Z,3.08
2023-03-20T01:53:18.934Z,2.55
2023-03-20T01:55:55.101Z,2.20
2023-03-20T01:58:31.784Z,2.55
2023-03-20T02:01:00.274Z,2.40
2023-03-20T02:03:27.876Z,2.88
2023-03-20T02:06:15.931Z,2.38
2023-03-20T02:09:00.358Z,2.08
2023-03-20T02:11:33.012Z,2.50
2023-03-20T02:14:01.996Z,2.33
2023-03-20T02:16:37.134Z,2.88
2023-03-20T02:19:19.726Z,2.00
2023-03-20T02:24:53.971Z,2.30
2023-03-20T02:27:44.393Z,2.38
2023-03-20T02:30:33.046Z,2.50
2023-03-20T02:33:22.237Z,2.47
2023-03-20T02:36:11.687Z,2.65
2023-03-20T02:38:59.198Z,2.47
2023-03-20T02:41:42.164Z,2.20
2023-03-20T02:44:20.310Z,2.50
2023-03-20T02:46:54.679Z,2.40
2023-03-20T02:50:06.908Z,2.50
2023-03-20T02:52:49.003Z,2.40
2023-03-20T02:55:44.721Z,2.40
2023-03-20T02:58:30.909Z,2.40
2023-03-20T03:01:03.741Z,2.60
2023-03-20T03:03:38.642Z,2.50
2023-03-20T03:06:17.888Z,2.78
2023-03-20T03:08:50.654Z,2.20
2023-03-20T03:11:18.721Z,2.10
2023-03-20T03:13:51.065Z,2.53
2023-03-20T03:16:29.165Z,2.58
2023-03-20T03:19:26.090Z,2.35
2023-03-20T03:21:54.289Z,2.30
2023-03-20T03:24:39.970Z,2.40
2023-03-20T03:27:17.732Z,2.55
2023-03-20T03:29:51.320Z,2.17
2023-03-20T03:32:37.085Z,3.03
2023-03-20T03:35:07.635Z,1.85
2023-03-20T03:37:45.812Z,2.78
2023-03-20T03:40:24.661Z,3.37
2023-03-20T03:43:01.708Z,2.63
2023-03-20T03:45:32.234Z,2.47
2023-03-20T03:48:34.991Z,2.05
2023-03-20T03:51:16.849Z,2.38
2023-03-20T03:54:40.613Z,2.00
2023-03-20T03:57:37.105Z,2.60
2023-03-20T04:00:11.960Z,2.00
2023-03-20T04:02:44.815Z,2.15
2023-03-20T04:05:15.505Z,2.65
2023-03-20T04:07:47.272Z,2.97
2023-03-20T04:10:15.678Z,2.47
2023-03-20T04:12:45.441Z,2.10
2023-03-20T04:15:16.023Z,2.15
2023-03-20T04:17:44.814Z,2.17
2023-03-20T04:20:17.271Z,2.53
2023-03-20T04:22:46.725Z,2.67
2023-03-20T04:25:24.532Z,3.28
2023-03-20T04:27:55.789Z,2.00
2023-03-20T04:30:36.494Z,2.50
2023-03-20T04:33:10.041Z,2.10
2023-03-20T04:35:56.870Z,2.25
2023-03-20T04:38:25.080Z,2.67
2023-03-20T04:40:54.362Z,2.10
2023-03-20T04:43:21.970Z,2.45
2023-03-20T04:45:49.578Z,2.42
2023-03-20T04:48:17.165Z,2.47
2023-03-20T04:50:48.507Z,2.30
2023-03-20T04:53:19.357Z,2.15
2023-03-20T04:55:51.223Z,2.70
2023-03-20T04:58:19.746Z,2.45
2023-03-20T05:03:14.578Z,2.33
2023-03-20T05:05:45.029Z,2.45
2023-03-20T05:08:13.363Z,2.67
2023-03-20T05:10:41.952Z,2.38
2023-03-20T05:13:28.066Z,2.42
2023-03-20T05:16:18.535Z,2.28
2023-03-20T05:18:58.775Z,2.25
2023-03-20T05:21:45.098Z,3.05
2023-03-20T05:24:31.473Z,2.20
2023-03-20T05:27:16.473Z,2.50
2023-03-20T05:30:14.548Z,2.10
2023-03-20T05:32:57.566Z,2.25
2023-03-20T05:35:28.180Z,2.50
2023-03-20T05:38:22.913Z,2.35
2023-03-20T05:41:04.127Z,2.78
2023-03-20T05:43:43.570Z,2.20
2023-03-20T05:46:30.081Z,2.33
2023-03-20T05:49:20.456Z,2.97
2023-03-20T05:52:06.540Z,2.85
2023-03-20T05:54:52.623Z,2.35
2023-03-20T05:57:38.624Z,2.70
2023-03-20T06:00:23.743Z,2.63
2023-03-20T06:03:12.645Z,2.85
2023-03-20T06:06:01.514Z,2.50
2023-03-20T06:08:30.689Z,3.00
2023-03-20T06:11:00.698Z,2.92
2023-03-20T06:13:28.966Z,2.67
2023-03-20T06:15:56.627Z,2.80
2023-03-20T06:18:24.847Z,3.05
2023-03-20T06:20:57.032Z,2.80
2023-03-20T06:23:26.832Z,2.50
2023-03-20T06:25:54.857Z,3.03
2023-03-20T06:28:22.831Z,2.83
2023-03-20T06:30:58.347Z,3.13
2023-03-20T06:35:59.878Z,2.40
2023-03-20T06:38:30.259Z,2.95
2023-03-20T06:40:59.246Z,2.60
2023-03-20T06:43:26.680Z,2.47
2023-03-20T06:45:54.449Z,2.33
2023-03-20T06:48:30.507Z,2.80
2023-03-20T06:50:58.167Z,2.90
2023-03-20T06:53:32.249Z,3.03
2023-03-20T06:56:05.987Z,2.42
2023-03-20T06:58:33.496Z,2.83
2023-03-20T07:01:01.157Z,2.55
2023-03-20T07:03:28.852Z,2.53
2023-03-20T07:05:58.531Z,2.30
2023-03-20T07:08:26.236Z,2.20
2023-03-20T07:10:53.718Z,2.85
2023-03-20T07:13:21.308Z,2.58
2023-03-20T07:16:03.288Z,2.65
2023-03-20T07:18:36.233Z,2.78
2023-03-20T07:21:06.600Z,2.58
2023-03-20T07:23:35.352Z,2.97
2023-03-20T07:26:05.598Z,3.53
2023-03-20T07:28:34.555Z,3.38
2023-03-20T07:31:27.653Z,3.03
2023-03-20T07:34:15.732Z,2.55
2023-03-20T07:36:45.035Z,2.67
2023-03-20T07:39:17.806Z,2.50
2023-03-20T07:41:53.914Z,3.22
2023-03-20T07:44:37.039Z,3.45
2023-03-20T07:47:09.520Z,3.72
2023-03-20T07:52:09.646Z,2.90
2023-03-20T07:54:37.096Z,3.17
2023-03-20T07:57:05.731Z,2.65
2023-03-20T07:59:36.212Z,3.20
2023-03-20T08:02:03.774Z,2.75
2023-03-20T08:04:31.376Z,2.97
2023-03-20T08:06:59.279Z,3.05
2023-03-20T08:11:55.391Z,2.92
2023-03-20T08:14:25.712Z,2.88
2023-03-20T08:17:10.119Z,2.53
2023-03-20T08:19:40.154Z,3.33
2023-03-20T08:22:07.900Z,3.28
2023-03-20T08:24:36.923Z,3.28
2023-03-20T08:27:04.936Z,3.20
2023-03-20T08:29:32.335Z,3.10
2023-03-20T08:31:59.808Z,3.28
2023-03-20T08:34:28.051Z,3.00
2023-03-20T08:36:55.840Z,3.38
2023-03-20T08:39:23.372Z,4.25
2023-03-20T08:41:51.217Z,3.47
2023-03-20T08:46:47.567Z,3.72
2023-03-20T08:49:16.238Z,4.47
2023-03-20T08:51:43.906Z,4.53
2023-03-20T08:54:11.371Z,4.95
2023-03-20T08:56:39.022Z,5.68
2023-03-20T08:59:06.989Z,7.18
2023-03-20T09:04:17.220Z,6.25
2023-03-20T09:09:20.735Z,6.40
2023-03-20T09:11:48.207Z,6.80
2023-03-20T09:14:16.256Z,7.18
2023-03-20T09:16:43.820Z,6.82
2023-03-20T09:19:11.497Z,8.57
2023-03-20T09:21:39.151Z,7.65
2023-03-20T09:24:07.275Z,7.15
2023-03-20T09:26:34.725Z,6.68
2023-03-20T09:29:02.586Z,6.95
2023-03-20T09:33:57.465Z,7.10
2023-03-20T09:36:24.876Z,6.85
2023-03-20T09:38:52.363Z,9.32
2023-03-20T09:41:22.681Z,7.55
2023-03-20T09:44:12.824Z,8.95
2023-03-20T09:47:16.516Z,10.48
2023-03-20T09:50:14.288Z,9.53
2023-03-20T09:52:52.713Z,11.40
2023-03-20T09:55:27.674Z,10.45
2023-03-20T09:57:59.379Z,9.43
2023-03-20T10:00:31.217Z,10.52
2023-03-20T10:03:07.306Z,10.10
2023-03-20T10:05:39.283Z,9.70
2023-03-20T10:08:11.165Z,10.13
2023-03-20T10:11:06.960Z,10.38
2023-03-20T10:13:37.421Z,9.63
2023-03-20T10:16:16.166Z,9.32
2023-03-20T10:18:51.739Z,9.48
2023-03-20T10:21:29.266Z,10.10
2023-03-20T10:24:03.507Z,8.00
2023-03-20T10:26:36.332Z,11.30
2023-03-20T10:29:21.194Z,8.43
2023-03-20T10:31:56.250Z,8.98
2023-03-20T10:34:38.319Z,9.18
2023-03-20T10:37:45.419Z,9.57
2023-03-20T10:40:39.552Z,8.55
2023-03-20T10:43:17.447Z,8.52
2023-03-20T10:45:49.249Z,9.82
2023-03-20T10:48:34.322Z,9.60
2023-03-20T10:51:04.053Z,8.70
2023-03-20T10:53:43.157Z,9.43
2023-03-20T10:56:17.057Z,8.18
2023-03-20T10:58:48.488Z,7.93
2023-03-20T11:01:18.565Z,8.23
2023-03-20T11:03:46.348Z,7.72
2023-03-20T11:06:20.906Z,7.60
2023-03-20T11:09:02.231Z,8.45
2023-03-20T11:11:35.008Z,8.00
2023-03-20T11:14:21.218Z,8.93
2023-03-20T11:16:54.686Z,8.65
2023-03-20T11:19:24.463Z,10.18
2023-03-20T11:21:56.317Z,9.60
2023-03-20T11:24:34.151Z,8.50
2023-03-20T11:27:17.813Z,9.02
2023-03-20T11:29:50.655Z,8.43
2023-03-20T11:32:35.605Z,10.10
2023-03-20T11:35:33.656Z,10.45
2023-03-20T11:38:14.460Z,10.32
2023-03-20T11:40:42.013Z,9.60
2023-03-20T11:43:15.149Z,9.10
2023-03-20T11:45:46.336Z,11.38
2023-03-20T11:48:36.667Z,9.93
2023-03-20T11:51:08.667Z,9.45
2023-03-20T11:53:40.350Z,9.10
2023-03-20T11:56:31.990Z,10.32
2023-03-20T11:59:19.997Z,10.80
2023-03-20T12:01:55.991Z,9.45
2023-03-20T12:04:44.222Z,11.18
2023-03-20T12:07:26.136Z,10.18
2023-03-20T12:10:14.804Z,10.77
2023-03-20T12:12:57.007Z,11.05
2023-03-20T12:15:38.953Z,11.07
2023-03-20T12:18:33.121Z,9.95
2023-03-20T12:21:18.160Z,11.15
2023-03-20T12:24:11.499Z,12.75
2023-03-20T12:27:21.300Z,9.27
2023-03-20T12:29:56.032Z,9.77
2023-03-20T12:32:31.907Z,11.73
2023-03-20T12:35:11.320Z,10.27
2023-03-20T12:37:38.886Z,10.50
2023-03-20T12:40:07.844Z,11.45
2023-03-20T12:42:53.500Z,10.20
2023-03-20T12:45:23.566Z,10.98
2023-03-20T12:47:58.517Z,11.60
2023-03-20T12:50:33.774Z,13.27
2023-03-20T12:53:23.590Z,11.75
2023-03-20T12:56:20.717Z,12.27
2023-03-20T12:58:54.725Z,13.25
2023-03-20T13:01:31.313Z,11.85
2023-03-20T13:04:23.867Z,10.90
2023-03-20T13:07:02.486Z,12.32
2023-03-20T13:10:08.992Z,11.15
2023-03-20T13:12:47.384Z,10.20
2023-03-20T13:15:27.153Z,10.55
2023-03-20T13:18:28.679Z,12.25
2023-03-20T13:20:57.291Z,12.07
2023-03-20T13:23:31.476Z,11.95
2023-03-20T13:26:11.181Z,12.40
2023-03-20T13:28:39.760Z,12.50
2023-03-20T13:31:21.122Z,12.18
2023-03-20T13:34:26.149Z,11.52
2023-03-20T13:37:22.301Z,12.00
2023-03-20T13:40:06.324Z,10.77
2023-03-20T13:43:26.716Z,12.10
2023-03-20T13:46:08.912Z,10.35
2023-03-20T13:48:41.542Z,12.07
2023-03-20T13:51:30.617Z,11.95
2023-03-20T13:54:23.482Z,12.05
2023-03-20T13:57:13.709Z,11.52
2023-03-20T13:59:58.522Z,11.35
2023-03-20T14:03:28.899Z,11.82
2023-03-20T14:05:56.873Z,11.55
2023-03-20T14:11:19.175Z,11.57
2023-03-20T14:13:52.939Z,11.18
2023-03-20T14:16:20.986Z,11.05
2023-03-20T14:18:50.787Z,11.93
2023-03-20T14:21:25.271Z,12.70
2023-03-20T14:24:02.329Z,13.38
2023-03-20T14:26:35.640Z,12.80
2023-03-20T14:29:47.458Z,12.50
2023-03-20T14:32:33.199Z,12.27
2023-03-20T14:35:22.052Z,12.45
2023-03-20T14:38:05.010Z,13.52
2023-03-20T14:40:40.971Z,13.30
2023-03-20T14:43:19.865Z,13.65
2023-03-20T14:45:47.312Z,14.20
2023-03-20T14:48:27.004Z,14.35
2023-03-20T14:51:09.650Z,13.55
2023-03-20T14:53:40.923Z,12.98
2023-03-20T14:56:15.467Z,14.60
2023-03-20T14:58:49.242Z,14.50
2023-03-20T15:01:21.782Z,14.00
2023-03-20T15:04:07.183Z,13.88
2023-03-20T15:06:42.797Z,16.08
2023-03-20T15:09:12.147Z,14.02
2023-03-20T15:11:42.522Z,14.73
2023-03-20T15:14:11.276Z,13.05
2023-03-20T15:16:39.065Z,15.40
2023-03-20T15:19:19.063Z,15.70
2023-03-20T15:21:48.333Z,14.93
2023-03-20T15:24:30.577Z,15.57
2023-03-20T15:27:00.702Z,13.68
2023-03-20T15:29:32.726Z,15.43
2023-03-20T15:32:13.960Z,13.85
2023-03-20T15:34:52.610Z,15.52
2023-03-20T15:37:25.021Z,17.52
2023-03-20T15:39:56.299Z,15.27
2023-03-20T15:42:25.817Z,15.93
2023-03-20T15:44:55.534Z,15.20
2023-03-20T15:47:25.660Z,14.57
2023-03-20T15:50:01.068Z,14.75
2023-03-20T15:53:01.616Z,16.52
2023-03-20T15:55:29.487Z,16.25
2023-03-20T16:00:40.051Z,16.33
2023-03-20T16:03:11.735Z,14.95
2023-03-20T16:05:44.433Z,16.73
2023-03-20T16:08:34.093Z,17.63
2023-03-20T16:11:06.957Z,17.52
2023-03-20T16:13:49.817Z,17.30
2023-03-20T16:16:24.092Z,16.90
2023-03-20T16:18:52.032Z,15.52
2023-03-20T16:23:53.821Z,14.85
2023-03-20T16:26:23.521Z,17.83
2023-03-20T16:28:55.072Z,15.77
2023-03-20T16:31:27.545Z,16.23
2023-03-20T16:34:04.275Z,16.38
2023-03-20T16:36:35.572Z,15.77
2023-03-20T16:39:08.091Z,15.75
2023-03-20T16:41:40.680Z,14.13
2023-03-20T16:44:22.267Z,15.65
2023-03-20T16:47:20.939Z,15.65
2023-03-20T16:49:52.180Z,15.82
2023-03-20T16:52:27.740Z,15.95
2023-03-20T16:55:00.874Z,15.68
2023-03-20T16:57:36.824Z,19.33
2023-03-20T17:00:20.975Z,19.63
2023-03-20T17:03:22.883Z,17.60
2023-03-20T17:06:07.003Z,17.17
2023-03-20T17:08:46.279Z,15.43
2023-03-20T17:11:20.980Z,16.02
2023-03-20T17:13:51.588Z,13.50
2023-03-20T17:16:23.215Z,11.35
2023-03-20T17:19:19.267Z,10.88
2023-03-20T17:21:48.204Z,11.10
2023-03-20T17:24:17.249Z,9.82
2023-03-20T17:26:52.341Z,9.82
2023-03-20T17:29:20.994Z,10.82
2023-03-20T17:31:48.573Z,10.73
2023-03-20T17:34:16.051Z,10.30
2023-03-20T17:36:44.237Z,10.85
2023-03-20T17:39:20.284Z,9.18
2023-03-20T17:41:48.088Z,8.77
2023-03-20T17:44:15.915Z,8.60
2023-03-20T17:46:57.110Z,7.90
2023-03-20T17:49:27.858Z,9.82
2023-03-20T17:51:56.065Z,8.05
2023-03-20T17:54:23.983Z,7.20
2023-03-20T17:59:20.543Z,6.53
2023-03-20T18:01:48.710Z,6.35
2023-03-20T18:04:16.479Z,6.45
2023-03-20T18:06:44.100Z,5.90
2023-03-20T18:09:14.940Z,6.47
2023-03-20T18:11:42.379Z,5.60
2023-03-20T18:14:14.996Z,6.00
2023-03-20T18:16:42.518Z,6.40
2023-03-20T18:19:23.642Z,6.30
2023-03-20T18:21:52.324Z,6.07
2023-03-20T18:24:20.067Z,6.13
2023-03-20T18:26:48.050Z,6.15
2023-03-20T18:29:24.389Z,6.13
2023-03-20T18:31:52.654Z,6.25
2023-03-20T18:34:20.421Z,6.45
2023-03-20T18:36:47.975Z,6.03
2023-03-20T18:39:20.998Z,6.53
2023-03-20T18:41:48.564Z,7.90
2023-03-20T18:44:17.038Z,6.07
2023-03-20T18:46:44.572Z,6.93
2023-03-20T18:49:17.908Z,6.03
2023-03-20T18:51:47.110Z,5.50
2023-03-20T18:54:16.460Z,5.82
2023-03-20T18:56:45.366Z,7.85
2023-03-20T18:59:13.371Z,5.65
2023-03-20T19:01:41.395Z,7.47
2023-03-20T19:04:23.483Z,6.57
2023-03-20T19:06:51.143Z,7.18
2023-03-20T19:09:18.878Z,7.05
2023-03-20T19:11:46.690Z,6.13
2023-03-20T19:16:44.477Z,7.38
2023-03-20T19:19:15.457Z,6.95
2023-03-20T19:21:43.182Z,6.95
2023-03-20T19:24:10.915Z,7.05
2023-03-20T19:26:38.949Z,6.57
2023-03-20T19:29:09.547Z,6.07
2023-03-20T19:31:37.903Z,6.03
2023-03-20T19:34:24.658Z,6.82
2023-03-20T19:36:56.512Z,6.65
2023-03-20T19:39:24.240Z,6.78
2023-03-20T19:41:52.865Z,6.60
2023-03-20T19:44:20.340Z,7.97
2023-03-20T19:46:48.138Z,6.72
2023-03-20T19:49:20.896Z,6.50
2023-03-20T19:51:50.047Z,7.22
2023-03-20T19:54:17.867Z,7.68
2023-03-20T19:59:16.262Z,6.40
2023-03-20T20:01:46.385Z,7.10
2023-03-20T20:04:14.391Z,6.68
2023-03-20T20:06:42.083Z,7.25
2023-03-20T20:09:09.779Z,6.78
2023-03-20T20:11:37.315Z,5.97
2023-03-20T20:14:14.525Z,6.75
2023-03-20T20:16:47.953Z,7.68
2023-03-20T20:19:54.716Z,7.63
2023-03-20T20:22:26.501Z,7.97
2023-03-20T20:24:55.050Z,6.57
2023-03-20T20:27:23.029Z,7.03
2023-03-20T20:29:53.021Z,7.20
2023-03-20T20:32:23.452Z,7.38
2023-03-20T20:40:30.541Z,7.28
2023-03-20T20:43:01.591Z,7.03
2023-03-20T20:45:31.682Z,7.75
2023-03-20T20:48:01.578Z,7.55
2023-03-20T20:50:31.842Z,7.22
2023-03-20T20:53:00.146Z,7.53
2023-03-20T20:55:31.169Z,7.63
2023-03-20T20:57:59.369Z,7.75
2023-03-20T21:00:45.342Z,8.10
2023-03-20T21:03:15.054Z,7.38
2023-03-20T21:05:44.256Z,7.82
2023-03-20T21:08:14.760Z,7.60
2023-03-20T21:10:46.150Z,8.07
2023-03-20T21:13:14.926Z,7.13
2023-03-20T21:15:43.466Z,7.35
2023-03-20T21:18:11.006Z,8.00
2023-03-20T21:20:38.628Z,7.35
2023-03-20T21:23:06.269Z,6.90
2023-03-20T21:25:40.682Z,7.22
2023-03-20T21:28:10.685Z,8.45
2023-03-20T21:31:12.158Z,7.97
2023-03-20T21:33:34.433Z,8.25
2023-03-20T21:36:03.391Z,9.07
2023-03-20T21:39:05.852Z,7.70
2023-03-20T21:41:19.155Z,8.68
2023-03-20T21:43:47.688Z,8.88
2023-03-20T21:55:15.043Z,8.05
2023-03-20T22:06:35.360Z,9.30
2023-03-20T22:09:38.807Z,8.73
2023-03-20T22:12:01.727Z,8.57
2023-03-20T22:15:04.034Z,8.25
2023-03-20T22:29:03.217Z,8.55
2023-03-20T22:37:39.528Z,9.30
2023-03-20T22:42:51.449Z,8.45
2023-03-20T22:45:19.512Z,7.47
2023-03-20T22:47:47.342Z,8.82
2023-03-20T22:50:14.814Z,9.30
2023-03-20T22:52:49.187Z,8.60
2023-03-20T22:55:18.106Z,8.98
2023-03-20T22:57:59.765Z,10.07
2023-03-20T23:03:15.310Z,8.05
2023-03-20T23:05:47.579Z,8.43
2023-03-20T23:08:17.899Z,8.55
2023-03-20T23:10:47.821Z,8.32
2023-03-20T23:13:16.564Z,8.48
2023-03-20T23:15:48.364Z,8.57
2023-03-20T23:18:15.846Z,9.57
2023-03-20T23:20:43.493Z,9.15
2023-03-20T23:23:11.184Z,8.93
2023-03-20T23:25:40.524Z,9.07
2023-03-20T23:28:09.377Z,9.48
2023-03-20T23:30:46.714Z,8.77
2023-03-20T23:33:17.199Z,7.78
2023-03-20T23:35:44.871Z,9.63
2023-03-20T23:38:12.390Z,10.82
2023-03-20T23:40:40.119Z,9.95
2023-03-20T23:45:35.114Z,8.80
2023-03-20T23:48:02.644Z,9.52
2023-03-20T23:50:45.881Z,9.55
2023-03-20T23:53:21.472Z,9.75
2023-03-20T23:55:55.248Z,9.35
2023-03-20T23:58:24.730Z,9.27
